sensor_id;sensor_type;location;lat;lon;timestamp;temperature;humidity
76099;DHT22;64828;49.956;8.636;2023-07-08T00:00:24;18.00;65.10
76099;DHT22;64828;49.956;8.636;2023-07-08T00:00:46;18.00;65.40
76099;DHT22;64828;49.956;8.636;2023-07-08T00:01:11;17.90;65.50
76099;DHT22;64828;49.956;8.636;2023-07-08T00:01:28;17.90;65.30
76099;DHT22;64828;49.956;8.636;2023-07-08T00:01:44;17.80;65.00
76099;DHT22;64828;49.956;8.636;2023-07-08T00:01:59;17.80;65.30
76099;DHT22;64828;49.956;8.636;2023-07-08T00:02:15;17.80;65.30
76099;DHT22;64828;49.956;8.636;2023-07-08T00:02:31;17.80;65.50
76099;DHT22;64828;49.956;8.636;2023-07-08T00:02:47;17.80;65.80
76099;DHT22;64828;49.956;8.636;2023-07-08T00:03:02;17.80;65.60
76099;DHT22;64828;49.956;8.636;2023-07-08T00:03:19;17.80;65.60
76099;DHT22;64828;49.956;8.636;2023-07-08T00:03:34;17.80;66.00
76099;DHT22;64828;49.956;8.636;2023-07-08T00:03:50;17.80;66.10
76099;DHT22;64828;49.956;8.636;2023-07-08T00:04:06;17.70;66.10
76099;DHT22;64828;49.956;8.636;2023-07-08T00:04:22;17.70;65.80
76099;DHT22;64828;49.956;8.636;2023-07-08T00:04:39;17.70;65.80
76099;DHT22;64828;49.956;8.636;2023-07-08T00:04:55;17.70;65.80
76099;DHT22;64828;49.956;8.636;2023-07-08T00:05:12;17.70;65.90
76099;DHT22;64828;49.956;8.636;2023-07-08T00:05:30;17.70;65.70
76099;DHT22;64828;49.956;8.636;2023-07-08T00:05:48;17.70;65.80
76099;DHT22;64828;49.956;8.636;2023-07-08T00:06:14;17.60;65.80
76099;DHT22;64828;49.956;8.636;2023-07-08T00:06:34;17.60;66.00
76099;DHT22;64828;49.956;8.636;2023-07-08T00:06:50;17.60;66.10
76099;DHT22;64828;49.956;8.636;2023-07-08T00:07:11;17.60;66.00
76099;DHT22;64828;49.956;8.636;2023-07-08T00:07:28;17.60;66.10
76099;DHT22;64828;49.956;8.636;2023-07-08T00:07:45;17.60;66.10
76099;DHT22;64828;49.956;8.636;2023-07-08T00:08:01;17.60;66.10
76099;DHT22;64828;49.956;8.636;2023-07-08T00:08:18;17.60;65.90
76099;DHT22;64828;49.956;8.636;2023-07-08T00:08:35;17.60;65.80
76099;DHT22;64828;49.956;8.636;2023-07-08T00:08:51;17.60;65.90
76099;DHT22;64828;49.956;8.636;2023-07-08T00:09:10;17.60;65.90
76099;DHT22;64828;49.956;8.636;2023-07-08T00:09:30;17.60;66.00
76099;DHT22;64828;49.956;8.636;2023-07-08T00:09:46;17.60;66.20
76099;DHT22;64828;49.956;8.636;2023-07-08T00:10:01;17.60;66.10
76099;DHT22;64828;49.956;8.636;2023-07-08T00:10:20;17.60;66.00
76099;DHT22;64828;49.956;8.636;2023-07-08T00:10:37;17.60;66.10
76099;DHT22;64828;49.956;8.636;2023-07-08T00:10:53;17.60;66.50
76099;DHT22;64828;49.956;8.636;2023-07-08T00:11:13;17.60;66.50
76099;DHT22;64828;49.956;8.636;2023-07-08T00:11:30;17.60;65.90
76099;DHT22;64828;49.956;8.636;2023-07-08T00:11:46;17.60;66.00
76099;DHT22;64828;49.956;8.636;2023-07-08T00:12:04;17.60;66.00
76099;DHT22;64828;49.956;8.636;2023-07-08T00:12:24;17.60;66.20
76099;DHT22;64828;49.956;8.636;2023-07-08T00:12:41;17.60;66.10
76099;DHT22;64828;49.956;8.636;2023-07-08T00:12:58;17.60;66.40
76099;DHT22;64828;49.956;8.636;2023-07-08T00:13:13;17.60;66.10
76099;DHT22;64828;49.956;8.636;2023-07-08T00:13:29;17.60;66.00
76099;DHT22;64828;49.956;8.636;2023-07-08T00:13:45;17.60;66.10
76099;DHT22;64828;49.956;8.636;2023-07-08T00:14:01;17.60;66.20
76099;DHT22;64828;49.956;8.636;2023-07-08T00:14:16;17.70;65.90
76099;DHT22;64828;49.956;8.636;2023-07-08T00:14:32;17.60;65.80
76099;DHT22;64828;49.956;8.636;2023-07-08T00:14:47;17.60;65.60
76099;DHT22;64828;49.956;8.636;2023-07-08T00:15:04;17.60;65.70
76099;DHT22;64828;49.956;8.636;2023-07-08T00:15:24;17.70;65.50
76099;DHT22;64828;49.956;8.636;2023-07-08T00:15:44;17.60;65.50
76099;DHT22;64828;49.956;8.636;2023-07-08T00:15:59;17.60;65.30
76099;DHT22;64828;49.956;8.636;2023-07-08T00:16:17;17.60;65.40
76099;DHT22;64828;49.956;8.636;2023-07-08T00:16:34;17.60;65.50
76099;DHT22;64828;49.956;8.636;2023-07-08T00:16:51;17.60;65.40
76099;DHT22;64828;49.956;8.636;2023-07-08T00:17:11;17.60;65.50
76099;DHT22;64828;49.956;8.636;2023-07-08T00:17:28;17.60;65.80
76099;DHT22;64828;49.956;8.636;2023-07-08T00:17:44;17.50;65.50
76099;DHT22;64828;49.956;8.636;2023-07-08T00:18:00;17.60;64.90
76099;DHT22;64828;49.956;8.636;2023-07-08T00:18:17;17.60;65.50
76099;DHT22;64828;49.956;8.636;2023-07-08T00:18:34;17.60;65.70
76099;DHT22;64828;49.956;8.636;2023-07-08T00:18:49;17.60;65.60
76099;DHT22;64828;49.956;8.636;2023-07-08T00:19:08;17.60;65.70
76099;DHT22;64828;49.956;8.636;2023-07-08T00:19:25;17.60;65.50
76099;DHT22;64828;49.956;8.636;2023-07-08T00:19:41;17.60;65.90
76099;DHT22;64828;49.956;8.636;2023-07-08T00:19:56;17.60;65.80
76099;DHT22;64828;49.956;8.636;2023-07-08T00:20:23;17.60;65.60
76099;DHT22;64828;49.956;8.636;2023-07-08T00:20:48;17.60;65.60
76099;DHT22;64828;49.956;8.636;2023-07-08T00:21:09;17.60;65.50
76099;DHT22;64828;49.956;8.636;2023-07-08T00:21:32;17.60;65.90
76099;DHT22;64828;49.956;8.636;2023-07-08T00:21:47;17.60;66.00
76099;DHT22;64828;49.956;8.636;2023-07-08T00:22:12;17.50;66.10
76099;DHT22;64828;49.956;8.636;2023-07-08T00:22:29;17.50;66.00
76099;DHT22;64828;49.956;8.636;2023-07-08T00:22:44;17.50;65.80
76099;DHT22;64828;49.956;8.636;2023-07-08T00:23:02;17.50;65.50
76099;DHT22;64828;49.956;8.636;2023-07-08T00:23:18;17.50;65.70
76099;DHT22;64828;49.956;8.636;2023-07-08T00:23:37;17.50;65.80
76099;DHT22;64828;49.956;8.636;2023-07-08T00:23:52;17.50;65.90
76099;DHT22;64828;49.956;8.636;2023-07-08T00:24:08;17.50;66.20
76099;DHT22;64828;49.956;8.636;2023-07-08T00:24:24;17.60;66.10
76099;DHT22;64828;49.956;8.636;2023-07-08T00:24:42;17.50;65.60
76099;DHT22;64828;49.956;8.636;2023-07-08T00:24:58;17.50;65.50
76099;DHT22;64828;49.956;8.636;2023-07-08T00:25:14;17.60;65.70
76099;DHT22;64828;49.956;8.636;2023-07-08T00:25:31;17.60;65.80
76099;DHT22;64828;49.956;8.636;2023-07-08T00:25:48;17.60;65.80
76099;DHT22;64828;49.956;8.636;2023-07-08T00:26:10;17.50;65.70
76099;DHT22;64828;49.956;8.636;2023-07-08T00:26:45;17.50;65.50
76099;DHT22;64828;49.956;8.636;2023-07-08T00:27:01;17.50;64.50
76099;DHT22;64828;49.956;8.636;2023-07-08T00:27:17;17.50;64.40
76099;DHT22;64828;49.956;8.636;2023-07-08T00:27:32;17.50;64.20
76099;DHT22;64828;49.956;8.636;2023-07-08T00:27:48;17.50;64.40
76099;DHT22;64828;49.956;8.636;2023-07-08T00:28:15;17.50;64.80
76099;DHT22;64828;49.956;8.636;2023-07-08T00:28:32;17.50;65.20
76099;DHT22;64828;49.956;8.636;2023-07-08T00:28:48;17.50;65.00
76099;DHT22;64828;49.956;8.636;2023-07-08T00:29:09;17.50;65.80
76099;DHT22;64828;49.956;8.636;2023-07-08T00:29:28;17.50;65.50
76099;DHT22;64828;49.956;8.636;2023-07-08T00:29:43;17.50;65.40
76099;DHT22;64828;49.956;8.636;2023-07-08T00:29:59;17.50;65.30
76099;DHT22;64828;49.956;8.636;2023-07-08T00:30:20;17.50;65.30
76099;DHT22;64828;49.956;8.636;2023-07-08T00:30:38;17.50;65.80
76099;DHT22;64828;49.956;8.636;2023-07-08T00:30:53;17.50;65.90
76099;DHT22;64828;49.956;8.636;2023-07-08T00:31:10;17.50;65.60
76099;DHT22;64828;49.956;8.636;2023-07-08T00:31:26;17.40;65.60
76099;DHT22;64828;49.956;8.636;2023-07-08T00:31:41;17.40;65.60
76099;DHT22;64828;49.956;8.636;2023-07-08T00:31:57;17.40;65.70
76099;DHT22;64828;49.956;8.636;2023-07-08T00:32:14;17.40;65.70
76099;DHT22;64828;49.956;8.636;2023-07-08T00:32:31;17.40;65.70
76099;DHT22;64828;49.956;8.636;2023-07-08T00:32:46;17.40;65.60
76099;DHT22;64828;49.956;8.636;2023-07-08T00:33:02;17.40;65.50
76099;DHT22;64828;49.956;8.636;2023-07-08T00:33:18;17.40;65.40
76099;DHT22;64828;49.956;8.636;2023-07-08T00:33:34;17.40;65.50
76099;DHT22;64828;49.956;8.636;2023-07-08T00:33:50;17.40;65.70
76099;DHT22;64828;49.956;8.636;2023-07-08T00:34:05;17.40;66.10
76099;DHT22;64828;49.956;8.636;2023-07-08T00:34:21;17.40;66.00
76099;DHT22;64828;49.956;8.636;2023-07-08T00:34:36;17.40;65.80
76099;DHT22;64828;49.956;8.636;2023-07-08T00:34:52;17.40;66.50
76099;DHT22;64828;49.956;8.636;2023-07-08T00:35:08;17.40;66.40
76099;DHT22;64828;49.956;8.636;2023-07-08T00:35:32;17.40;65.80
76099;DHT22;64828;49.956;8.636;2023-07-08T00:35:49;17.40;66.40
76099;DHT22;64828;49.956;8.636;2023-07-08T00:36:10;17.30;66.50
76099;DHT22;64828;49.956;8.636;2023-07-08T00:36:27;17.30;65.90
76099;DHT22;64828;49.956;8.636;2023-07-08T00:36:43;17.30;66.50
76099;DHT22;64828;49.956;8.636;2023-07-08T00:36:59;17.30;66.70
76099;DHT22;64828;49.956;8.636;2023-07-08T00:37:14;17.30;67.30
76099;DHT22;64828;49.956;8.636;2023-07-08T00:37:30;17.20;67.60
76099;DHT22;64828;49.956;8.636;2023-07-08T00:37:45;17.20;67.50
76099;DHT22;64828;49.956;8.636;2023-07-08T00:38:36;17.20;67.70
76099;DHT22;64828;49.956;8.636;2023-07-08T00:38:52;17.20;67.60
76099;DHT22;64828;49.956;8.636;2023-07-08T00:39:13;17.20;67.60
76099;DHT22;64828;49.956;8.636;2023-07-08T00:39:32;17.10;67.50
76099;DHT22;64828;49.956;8.636;2023-07-08T00:39:48;17.10;67.70
76099;DHT22;64828;49.956;8.636;2023-07-08T00:40:17;17.10;68.00
76099;DHT22;64828;49.956;8.636;2023-07-08T00:40:35;17.10;67.50
76099;DHT22;64828;49.956;8.636;2023-07-08T00:41:14;17.10;67.30
76099;DHT22;64828;49.956;8.636;2023-07-08T00:41:35;17.10;67.40
76099;DHT22;64828;49.956;8.636;2023-07-08T00:41:58;17.00;67.60
76099;DHT22;64828;49.956;8.636;2023-07-08T00:42:18;17.10;67.60
76099;DHT22;64828;49.956;8.636;2023-07-08T00:42:39;17.10;67.60
76099;DHT22;64828;49.956;8.636;2023-07-08T00:42:58;17.10;67.20
76099;DHT22;64828;49.956;8.636;2023-07-08T00:43:29;17.10;67.30
76099;DHT22;64828;49.956;8.636;2023-07-08T00:43:54;17.10;67.30
76099;DHT22;64828;49.956;8.636;2023-07-08T00:44:12;17.10;67.30
76099;DHT22;64828;49.956;8.636;2023-07-08T00:44:28;17.10;67.30
76099;DHT22;64828;49.956;8.636;2023-07-08T00:44:44;17.00;67.50
76099;DHT22;64828;49.956;8.636;2023-07-08T00:44:59;17.00;67.40
76099;DHT22;64828;49.956;8.636;2023-07-08T00:45:47;16.90;67.00
76099;DHT22;64828;49.956;8.636;2023-07-08T00:47:16;16.90;67.30
76099;DHT22;64828;49.956;8.636;2023-07-08T00:47:32;16.90;67.60
76099;DHT22;64828;49.956;8.636;2023-07-08T00:47:48;16.80;67.60
76099;DHT22;64828;49.956;8.636;2023-07-08T00:48:44;16.80;67.40
76099;DHT22;64828;49.956;8.636;2023-07-08T00:49:35;16.90;66.80
76099;DHT22;64828;49.956;8.636;2023-07-08T00:49:57;16.90;67.30
76099;DHT22;64828;49.956;8.636;2023-07-08T00:50:19;16.90;67.30
76099;DHT22;64828;49.956;8.636;2023-07-08T00:50:34;16.90;67.20
76099;DHT22;64828;49.956;8.636;2023-07-08T00:50:50;16.90;67.00
76099;DHT22;64828;49.956;8.636;2023-07-08T00:51:09;16.90;67.00
76099;DHT22;64828;49.956;8.636;2023-07-08T00:51:27;16.90;67.40
76099;DHT22;64828;49.956;8.636;2023-07-08T00:51:43;16.90;67.40
76099;DHT22;64828;49.956;8.636;2023-07-08T00:52:23;16.90;67.30
76099;DHT22;64828;49.956;8.636;2023-07-08T00:52:44;16.90;67.20
76099;DHT22;64828;49.956;8.636;2023-07-08T00:53:29;16.90;67.80
76099;DHT22;64828;49.956;8.636;2023-07-08T00:53:52;16.80;67.30
76099;DHT22;64828;49.956;8.636;2023-07-08T00:54:12;16.80;68.10
76099;DHT22;64828;49.956;8.636;2023-07-08T00:54:29;16.80;68.30
76099;DHT22;64828;49.956;8.636;2023-07-08T00:54:45;16.80;68.30
76099;DHT22;64828;49.956;8.636;2023-07-08T00:55:06;16.80;68.40
76099;DHT22;64828;49.956;8.636;2023-07-08T00:55:25;16.80;68.60
76099;DHT22;64828;49.956;8.636;2023-07-08T00:55:40;16.80;68.60
76099;DHT22;64828;49.956;8.636;2023-07-08T00:56:12;16.70;68.90
76099;DHT22;64828;49.956;8.636;2023-07-08T00:57:00;16.70;68.80
76099;DHT22;64828;49.956;8.636;2023-07-08T00:57:18;16.60;69.00
76099;DHT22;64828;49.956;8.636;2023-07-08T00:57:38;16.60;69.30
76099;DHT22;64828;49.956;8.636;2023-07-08T00:57:56;16.60;69.10
76099;DHT22;64828;49.956;8.636;2023-07-08T00:58:12;16.70;69.00
76099;DHT22;64828;49.956;8.636;2023-07-08T00:58:34;16.70;69.00
76099;DHT22;64828;49.956;8.636;2023-07-08T00:59:03;16.70;69.00
76099;DHT22;64828;49.956;8.636;2023-07-08T00:59:39;16.70;68.80
76099;DHT22;64828;49.956;8.636;2023-07-08T01:00:07;16.70;68.60
76099;DHT22;64828;49.956;8.636;2023-07-08T01:00:25;16.70;68.30
76099;DHT22;64828;49.956;8.636;2023-07-08T01:00:43;16.70;68.40
76099;DHT22;64828;49.956;8.636;2023-07-08T01:00:59;16.70;68.40
76099;DHT22;64828;49.956;8.636;2023-07-08T01:01:17;16.70;68.40
76099;DHT22;64828;49.956;8.636;2023-07-08T01:01:37;16.70;68.50
76099;DHT22;64828;49.956;8.636;2023-07-08T01:01:58;16.70;68.40
76099;DHT22;64828;49.956;8.636;2023-07-08T01:02:19;16.70;68.30
76099;DHT22;64828;49.956;8.636;2023-07-08T01:02:43;16.70;67.90
76099;DHT22;64828;49.956;8.636;2023-07-08T01:03:03;16.70;67.60
76099;DHT22;64828;49.956;8.636;2023-07-08T01:03:20;16.70;67.50
76099;DHT22;64828;49.956;8.636;2023-07-08T01:03:48;16.70;67.70
76099;DHT22;64828;49.956;8.636;2023-07-08T01:04:23;16.80;67.50
76099;DHT22;64828;49.956;8.636;2023-07-08T01:05:17;16.80;67.10
76099;DHT22;64828;49.956;8.636;2023-07-08T01:05:34;16.80;67.50
76099;DHT22;64828;49.956;8.636;2023-07-08T01:05:56;16.70;67.50
76099;DHT22;64828;49.956;8.636;2023-07-08T01:06:16;16.70;67.30
76099;DHT22;64828;49.956;8.636;2023-07-08T01:06:36;16.80;66.90
76099;DHT22;64828;49.956;8.636;2023-07-08T01:06:57;16.80;66.80
76099;DHT22;64828;49.956;8.636;2023-07-08T01:07:15;16.80;67.10
76099;DHT22;64828;49.956;8.636;2023-07-08T01:07:38;16.80;67.40
76099;DHT22;64828;49.956;8.636;2023-07-08T01:07:59;16.80;67.20
76099;DHT22;64828;49.956;8.636;2023-07-08T01:08:18;16.90;67.00
76099;DHT22;64828;49.956;8.636;2023-07-08T01:08:34;16.80;66.90
76099;DHT22;64828;49.956;8.636;2023-07-08T01:08:50;16.80;66.90
76099;DHT22;64828;49.956;8.636;2023-07-08T01:09:11;16.80;66.90
76099;DHT22;64828;49.956;8.636;2023-07-08T01:09:34;16.80;66.90
76099;DHT22;64828;49.956;8.636;2023-07-08T01:10:02;16.80;66.50
76099;DHT22;64828;49.956;8.636;2023-07-08T01:10:27;16.90;66.60
76099;DHT22;64828;49.956;8.636;2023-07-08T01:10:52;16.90;66.40
76099;DHT22;64828;49.956;8.636;2023-07-08T01:11:11;16.90;66.10
76099;DHT22;64828;49.956;8.636;2023-07-08T01:11:27;16.90;66.10
76099;DHT22;64828;49.956;8.636;2023-07-08T01:11:42;16.90;66.00
76099;DHT22;64828;49.956;8.636;2023-07-08T01:12:01;17.00;66.00
76099;DHT22;64828;49.956;8.636;2023-07-08T01:12:25;17.00;66.00
76099;DHT22;64828;49.956;8.636;2023-07-08T01:12:48;17.00;66.00
76099;DHT22;64828;49.956;8.636;2023-07-08T01:13:11;17.00;65.80
76099;DHT22;64828;49.956;8.636;2023-07-08T01:13:35;17.00;65.70
76099;DHT22;64828;49.956;8.636;2023-07-08T01:13:56;17.00;65.80
76099;DHT22;64828;49.956;8.636;2023-07-08T01:14:18;16.90;65.90
76099;DHT22;64828;49.956;8.636;2023-07-08T01:14:37;17.00;66.00
76099;DHT22;64828;49.956;8.636;2023-07-08T01:14:58;16.90;66.10
76099;DHT22;64828;49.956;8.636;2023-07-08T01:15:18;16.90;66.00
76099;DHT22;64828;49.956;8.636;2023-07-08T01:15:42;16.90;65.90
76099;DHT22;64828;49.956;8.636;2023-07-08T01:16:00;16.90;65.80
76099;DHT22;64828;49.956;8.636;2023-07-08T01:16:17;16.90;65.90
76099;DHT22;64828;49.956;8.636;2023-07-08T01:16:32;17.00;66.10
76099;DHT22;64828;49.956;8.636;2023-07-08T01:16:50;17.00;66.00
76099;DHT22;64828;49.956;8.636;2023-07-08T01:17:06;17.00;65.90
76099;DHT22;64828;49.956;8.636;2023-07-08T01:17:22;17.00;65.90
76099;DHT22;64828;49.956;8.636;2023-07-08T01:17:38;17.00;65.80
76099;DHT22;64828;49.956;8.636;2023-07-08T01:17:54;17.00;65.80
76099;DHT22;64828;49.956;8.636;2023-07-08T01:18:14;17.00;65.60
76099;DHT22;64828;49.956;8.636;2023-07-08T01:18:36;17.00;65.20
76099;DHT22;64828;49.956;8.636;2023-07-08T01:18:52;17.00;65.20
76099;DHT22;64828;49.956;8.636;2023-07-08T01:19:14;17.00;65.20
76099;DHT22;64828;49.956;8.636;2023-07-08T01:19:33;17.10;65.10
76099;DHT22;64828;49.956;8.636;2023-07-08T01:19:49;17.10;65.10
76099;DHT22;64828;49.956;8.636;2023-07-08T01:20:07;17.10;65.10
76099;DHT22;64828;49.956;8.636;2023-07-08T01:20:28;17.00;65.10
76099;DHT22;64828;49.956;8.636;2023-07-08T01:20:46;17.00;65.20
76099;DHT22;64828;49.956;8.636;2023-07-08T01:21:27;17.00;65.10
76099;DHT22;64828;49.956;8.636;2023-07-08T01:21:59;17.00;65.10
76099;DHT22;64828;49.956;8.636;2023-07-08T01:22:18;17.00;65.10
76099;DHT22;64828;49.956;8.636;2023-07-08T01:22:35;17.00;65.00
76099;DHT22;64828;49.956;8.636;2023-07-08T01:22:51;17.00;64.90
76099;DHT22;64828;49.956;8.636;2023-07-08T01:23:07;17.00;65.10
76099;DHT22;64828;49.956;8.636;2023-07-08T01:23:26;17.00;65.10
76099;DHT22;64828;49.956;8.636;2023-07-08T01:23:42;17.00;65.10
76099;DHT22;64828;49.956;8.636;2023-07-08T01:23:59;17.00;65.00
76099;DHT22;64828;49.956;8.636;2023-07-08T01:24:17;17.00;64.90
76099;DHT22;64828;49.956;8.636;2023-07-08T01:24:35;17.00;64.90
76099;DHT22;64828;49.956;8.636;2023-07-08T01:24:53;17.00;64.90
76099;DHT22;64828;49.956;8.636;2023-07-08T01:25:10;17.00;65.00
76099;DHT22;64828;49.956;8.636;2023-07-08T01:25:28;17.10;65.10
76099;DHT22;64828;49.956;8.636;2023-07-08T01:25:45;17.00;65.20
76099;DHT22;64828;49.956;8.636;2023-07-08T01:26:01;17.10;65.20
76099;DHT22;64828;49.956;8.636;2023-07-08T01:26:17;17.10;65.00
76099;DHT22;64828;49.956;8.636;2023-07-08T01:26:37;17.10;64.90
76099;DHT22;64828;49.956;8.636;2023-07-08T01:26:56;17.10;64.90
76099;DHT22;64828;49.956;8.636;2023-07-08T01:27:15;17.10;65.80
76099;DHT22;64828;49.956;8.636;2023-07-08T01:27:36;17.10;66.00
76099;DHT22;64828;49.956;8.636;2023-07-08T01:27:57;17.00;65.90
76099;DHT22;64828;49.956;8.636;2023-07-08T01:28:14;17.00;65.90
76099;DHT22;64828;49.956;8.636;2023-07-08T01:28:30;17.00;65.70
76099;DHT22;64828;49.956;8.636;2023-07-08T01:28:46;17.00;65.80
76099;DHT22;64828;49.956;8.636;2023-07-08T01:29:03;17.00;65.80
76099;DHT22;64828;49.956;8.636;2023-07-08T01:29:19;17.00;66.00
76099;DHT22;64828;49.956;8.636;2023-07-08T01:29:35;17.00;65.90
76099;DHT22;64828;49.956;8.636;2023-07-08T01:29:51;16.90;65.70
76099;DHT22;64828;49.956;8.636;2023-07-08T01:30:13;17.00;66.00
76099;DHT22;64828;49.956;8.636;2023-07-08T01:30:30;16.90;65.90
76099;DHT22;64828;49.956;8.636;2023-07-08T01:30:46;16.80;66.10
76099;DHT22;64828;49.956;8.636;2023-07-08T01:31:04;16.80;66.10
76099;DHT22;64828;49.956;8.636;2023-07-08T01:31:21;16.80;66.70
76099;DHT22;64828;49.956;8.636;2023-07-08T01:31:38;16.80;66.90
76099;DHT22;64828;49.956;8.636;2023-07-08T01:31:58;16.80;66.90
76099;DHT22;64828;49.956;8.636;2023-07-08T01:32:17;16.80;66.90
76099;DHT22;64828;49.956;8.636;2023-07-08T01:32:37;16.80;66.90
76099;DHT22;64828;49.956;8.636;2023-07-08T01:33:04;16.80;66.90
76099;DHT22;64828;49.956;8.636;2023-07-08T01:33:27;16.80;67.10
76099;DHT22;64828;49.956;8.636;2023-07-08T01:33:43;16.80;67.30
76099;DHT22;64828;49.956;8.636;2023-07-08T01:34:00;16.80;67.20
76099;DHT22;64828;49.956;8.636;2023-07-08T01:34:16;16.80;67.30
76099;DHT22;64828;49.956;8.636;2023-07-08T01:34:33;16.80;67.20
76099;DHT22;64828;49.956;8.636;2023-07-08T01:34:56;16.80;67.10
76099;DHT22;64828;49.956;8.636;2023-07-08T01:35:16;16.80;66.90
76099;DHT22;64828;49.956;8.636;2023-07-08T01:35:32;16.80;66.80
76099;DHT22;64828;49.956;8.636;2023-07-08T01:35:50;16.80;66.70
76099;DHT22;64828;49.956;8.636;2023-07-08T01:36:10;16.80;66.60
76099;DHT22;64828;49.956;8.636;2023-07-08T01:36:33;16.80;66.60
76099;DHT22;64828;49.956;8.636;2023-07-08T01:36:55;16.80;66.80
76099;DHT22;64828;49.956;8.636;2023-07-08T01:37:14;16.80;67.10
76099;DHT22;64828;49.956;8.636;2023-07-08T01:37:42;16.80;67.00
76099;DHT22;64828;49.956;8.636;2023-07-08T01:38:04;16.70;67.10
76099;DHT22;64828;49.956;8.636;2023-07-08T01:38:32;16.70;67.30
76099;DHT22;64828;49.956;8.636;2023-07-08T01:38:48;16.70;67.50
76099;DHT22;64828;49.956;8.636;2023-07-08T01:39:04;16.60;67.80
76099;DHT22;64828;49.956;8.636;2023-07-08T01:39:22;16.60;67.70
76099;DHT22;64828;49.956;8.636;2023-07-08T01:39:39;16.60;68.00
76099;DHT22;64828;49.956;8.636;2023-07-08T01:39:54;16.60;68.20
76099;DHT22;64828;49.956;8.636;2023-07-08T01:40:31;16.50;68.40
76099;DHT22;64828;49.956;8.636;2023-07-08T01:40:54;16.50;68.40
76099;DHT22;64828;49.956;8.636;2023-07-08T01:41:14;16.50;68.50
76099;DHT22;64828;49.956;8.636;2023-07-08T01:41:31;16.50;68.40
76099;DHT22;64828;49.956;8.636;2023-07-08T01:41:47;16.50;68.30
76099;DHT22;64828;49.956;8.636;2023-07-08T01:42:02;16.50;68.10
76099;DHT22;64828;49.956;8.636;2023-07-08T01:42:18;16.50;68.10
76099;DHT22;64828;49.956;8.636;2023-07-08T01:42:34;16.50;68.00
76099;DHT22;64828;49.956;8.636;2023-07-08T01:42:50;16.60;67.90
76099;DHT22;64828;49.956;8.636;2023-07-08T01:43:05;16.60;67.80
76099;DHT22;64828;49.956;8.636;2023-07-08T01:43:21;16.60;67.80
76099;DHT22;64828;49.956;8.636;2023-07-08T01:43:37;16.60;67.90
76099;DHT22;64828;49.956;8.636;2023-07-08T01:43:53;16.60;67.80
76099;DHT22;64828;49.956;8.636;2023-07-08T01:44:37;16.60;67.70
76099;DHT22;64828;49.956;8.636;2023-07-08T01:44:53;16.70;67.40
76099;DHT22;64828;49.956;8.636;2023-07-08T01:45:13;16.70;67.10
76099;DHT22;64828;49.956;8.636;2023-07-08T01:45:37;16.70;66.80
76099;DHT22;64828;49.956;8.636;2023-07-08T01:45:58;16.70;67.20
76099;DHT22;64828;49.956;8.636;2023-07-08T01:46:23;16.60;67.30
76099;DHT22;64828;49.956;8.636;2023-07-08T01:46:41;16.60;67.70
76099;DHT22;64828;49.956;8.636;2023-07-08T01:47:00;16.60;67.90
76099;DHT22;64828;49.956;8.636;2023-07-08T01:47:22;16.50;68.30
76099;DHT22;64828;49.956;8.636;2023-07-08T01:47:38;16.50;68.50
76099;DHT22;64828;49.956;8.636;2023-07-08T01:47:57;16.50;68.50
76099;DHT22;64828;49.956;8.636;2023-07-08T01:48:18;16.50;68.60
76099;DHT22;64828;49.956;8.636;2023-07-08T01:48:39;16.50;68.60
76099;DHT22;64828;49.956;8.636;2023-07-08T01:49:01;16.50;68.50
76099;DHT22;64828;49.956;8.636;2023-07-08T01:49:17;16.50;68.70
76099;DHT22;64828;49.956;8.636;2023-07-08T01:49:35;16.50;68.70
76099;DHT22;64828;49.956;8.636;2023-07-08T01:49:54;16.50;68.60
76099;DHT22;64828;49.956;8.636;2023-07-08T01:50:10;16.50;68.50
76099;DHT22;64828;49.956;8.636;2023-07-08T01:50:27;16.50;68.50
76099;DHT22;64828;49.956;8.636;2023-07-08T01:51:00;16.50;68.50
76099;DHT22;64828;49.956;8.636;2023-07-08T01:51:18;16.50;68.30
76099;DHT22;64828;49.956;8.636;2023-07-08T01:51:35;16.60;68.20
76099;DHT22;64828;49.956;8.636;2023-07-08T01:51:50;16.60;68.20
76099;DHT22;64828;49.956;8.636;2023-07-08T01:52:07;16.60;68.30
76099;DHT22;64828;49.956;8.636;2023-07-08T01:52:23;16.60;68.60
76099;DHT22;64828;49.956;8.636;2023-07-08T01:52:39;16.50;68.60
76099;DHT22;64828;49.956;8.636;2023-07-08T01:52:58;16.60;68.50
76099;DHT22;64828;49.956;8.636;2023-07-08T01:53:18;16.50;68.50
76099;DHT22;64828;49.956;8.636;2023-07-08T01:53:40;16.50;68.50
76099;DHT22;64828;49.956;8.636;2023-07-08T01:53:57;16.50;68.50
76099;DHT22;64828;49.956;8.636;2023-07-08T01:54:12;16.60;68.40
76099;DHT22;64828;49.956;8.636;2023-07-08T01:54:28;16.60;68.40
76099;DHT22;64828;49.956;8.636;2023-07-08T01:54:43;16.60;68.30
76099;DHT22;64828;49.956;8.636;2023-07-08T01:54:59;16.60;68.30
76099;DHT22;64828;49.956;8.636;2023-07-08T01:55:14;16.60;68.30
76099;DHT22;64828;49.956;8.636;2023-07-08T01:55:30;16.60;68.40
76099;DHT22;64828;49.956;8.636;2023-07-08T01:55:46;16.60;68.50
76099;DHT22;64828;49.956;8.636;2023-07-08T01:56:04;16.50;68.70
76099;DHT22;64828;49.956;8.636;2023-07-08T01:56:20;16.60;68.80
76099;DHT22;64828;49.956;8.636;2023-07-08T01:56:35;16.50;68.90
76099;DHT22;64828;49.956;8.636;2023-07-08T01:56:55;16.50;68.90
76099;DHT22;64828;49.956;8.636;2023-07-08T01:57:11;16.50;69.10
76099;DHT22;64828;49.956;8.636;2023-07-08T01:57:27;16.50;69.00
76099;DHT22;64828;49.956;8.636;2023-07-08T01:57:42;16.50;68.80
76099;DHT22;64828;49.956;8.636;2023-07-08T01:57:58;16.60;68.60
76099;DHT22;64828;49.956;8.636;2023-07-08T01:58:13;16.60;68.60
76099;DHT22;64828;49.956;8.636;2023-07-08T01:58:29;16.60;68.50
76099;DHT22;64828;49.956;8.636;2023-07-08T01:58:45;16.60;68.60
76099;DHT22;64828;49.956;8.636;2023-07-08T01:59:00;16.60;68.30
76099;DHT22;64828;49.956;8.636;2023-07-08T01:59:16;16.60;68.10
76099;DHT22;64828;49.956;8.636;2023-07-08T01:59:31;16.60;68.20
76099;DHT22;64828;49.956;8.636;2023-07-08T01:59:47;16.60;68.10
76099;DHT22;64828;49.956;8.636;2023-07-08T02:00:03;16.60;68.10
76099;DHT22;64828;49.956;8.636;2023-07-08T02:00:20;16.60;67.90
76099;DHT22;64828;49.956;8.636;2023-07-08T02:00:36;16.60;68.00
76099;DHT22;64828;49.956;8.636;2023-07-08T02:00:52;16.70;67.80
76099;DHT22;64828;49.956;8.636;2023-07-08T02:01:09;16.70;67.60
76099;DHT22;64828;49.956;8.636;2023-07-08T02:01:25;16.70;67.30
76099;DHT22;64828;49.956;8.636;2023-07-08T02:01:41;16.70;67.50
76099;DHT22;64828;49.956;8.636;2023-07-08T02:01:56;16.70;67.50
76099;DHT22;64828;49.956;8.636;2023-07-08T02:02:12;16.70;67.60
76099;DHT22;64828;49.956;8.636;2023-07-08T02:02:28;16.70;67.50
76099;DHT22;64828;49.956;8.636;2023-07-08T02:02:43;16.70;67.10
76099;DHT22;64828;49.956;8.636;2023-07-08T02:03:10;16.70;67.10
76099;DHT22;64828;49.956;8.636;2023-07-08T02:03:31;16.70;67.40